CYDQ

Dawson Creek Airport

Dawson Creek, British Columbia, Canada
METAR CYDQ 101500Z AUTO 24018G27KT 9SM CLR 03/M05 A2971 RMK SLP097
Observed Flight Rules
Dec-10 @ 15:00 UTC (40 minutes ago) Visual Flight Rules
Wind Visibility Clouds
240° at 18 knots
 Gusting to 27 knots
9 miles
  • Clear skies
Temperatures Readings
Current 3°C / 37°F
Dewpoint -5°C / 23°F
Humidity 56%
Altimeter 29.71" Hg
Pressure 1009.7 hPa
Elevation 655
METAR CYDQ 101500Z AUTO 24018G27KT 9SM CLR 03/M05 A2971 RMK SLP097
Observed Flight Rules
Dec-10 @ 15:00 UTC
(40 minutes ago)
VFR
Wind Visibility
240° at 18 knots
 Gusting to 27 knots
9 miles
Clouds
  • Clear skies
Temperature Dewpoint
3°C / 37°F -5°C / 23°F
Humidity Altimeter Pressure
56% 29.71" Hg 1009.7 hPa